createdAt,value
2023-07-05T00:02:12.050Z,1.63
2023-07-05T00:04:39.508Z,1.65
2023-07-05T00:07:06.785Z,1.75
2023-07-05T00:09:33.787Z,2.28
2023-07-05T00:12:00.887Z,1.95
2023-07-05T00:14:29.275Z,1.83
2023-07-05T00:16:56.776Z,1.92
2023-07-05T00:19:23.804Z,1.73
2023-07-05T00:21:50.810Z,1.60
2023-07-05T00:24:18.246Z,1.90
2023-07-05T00:26:45.387Z,1.80
2023-07-05T00:29:12.595Z,1.80
2023-07-05T00:31:39.798Z,1.83
2023-07-05T00:34:06.923Z,1.63
2023-07-05T00:36:33.919Z,1.90
2023-07-05T00:39:00.962Z,2.10
2023-07-05T00:41:28.067Z,1.48
2023-07-05T00:43:55.290Z,2.08
2023-07-05T00:46:30.874Z,1.98
2023-07-05T00:49:05.890Z,2.40
2023-07-05T00:51:47.617Z,1.60
2023-07-05T00:54:19.501Z,1.45
2023-07-05T00:56:54.994Z,2.22
2023-07-05T00:59:25.666Z,1.60
2023-07-05T01:04:34.341Z,1.77
2023-07-05T01:07:02.062Z,1.88
2023-07-05T01:09:30.959Z,1.70
2023-07-05T01:12:22.769Z,1.83
2023-07-05T01:15:15.140Z,1.70
2023-07-05T01:18:14.999Z,1.38
2023-07-05T01:21:11.991Z,1.35
2023-07-05T01:24:01.982Z,1.30
2023-07-05T01:26:49.084Z,1.90
2023-07-05T01:29:40.759Z,1.40
2023-07-05T01:32:34.845Z,1.60
2023-07-05T01:35:12.895Z,1.38
2023-07-05T01:37:43.743Z,1.33
2023-07-05T01:40:22.640Z,1.50
2023-07-05T01:43:02.013Z,1.58
2023-07-05T01:46:02.379Z,1.63
2023-07-05T01:49:09.203Z,1.48
2023-07-05T01:52:16.591Z,1.85
2023-07-05T01:55:02.156Z,1.52
2023-07-05T01:57:41.713Z,1.70
2023-07-05T02:00:20.753Z,1.58
2023-07-05T02:03:09.013Z,1.27
2023-07-05T02:05:36.877Z,1.02
2023-07-05T02:08:05.351Z,1.27
2023-07-05T02:10:33.748Z,0.98
2023-07-05T02:13:53.712Z,1.00
2023-07-05T02:16:20.829Z,1.00
2023-07-05T02:18:47.942Z,0.90
2023-07-05T02:21:15.611Z,1.30
2023-07-05T02:23:42.677Z,1.55
2023-07-05T02:26:09.848Z,0.98
2023-07-05T02:28:37.112Z,1.45
2023-07-05T02:31:10.464Z,1.20
2023-07-05T02:33:37.566Z,1.55
2023-07-05T02:36:11.293Z,1.30
2023-07-05T02:38:39.779Z,1.02
2023-07-05T02:41:07.961Z,1.35
2023-07-05T02:43:35.297Z,0.80
2023-07-05T02:46:02.712Z,1.35
2023-07-05T02:48:30.397Z,1.50
2023-07-05T02:50:57.460Z,1.02
2023-07-05T02:53:24.571Z,1.20
2023-07-05T02:55:52.482Z,1.10
2023-07-05T02:58:19.749Z,1.00
2023-07-05T03:00:46.853Z,1.25
2023-07-05T03:03:13.943Z,1.23
2023-07-05T03:05:41.061Z,1.63
2023-07-05T03:08:08.104Z,1.38
2023-07-05T03:10:40.643Z,1.25
2023-07-05T03:13:07.714Z,1.30
2023-07-05T03:15:34.809Z,1.45
2023-07-05T03:18:01.889Z,1.33
2023-07-05T03:20:29.674Z,1.40
2023-07-05T03:22:56.776Z,1.67
2023-07-05T03:25:23.923Z,1.75
2023-07-05T03:27:51.877Z,1.20
2023-07-05T03:30:18.999Z,1.70
2023-07-05T03:32:46.431Z,1.20
2023-07-05T03:35:15.650Z,1.65
2023-07-05T03:37:43.410Z,1.65
2023-07-05T03:40:10.928Z,1.35
2023-07-05T03:42:38.368Z,1.40
2023-07-05T03:45:05.910Z,1.20
2023-07-05T03:47:33.052Z,1.42
2023-07-05T03:50:00.302Z,1.77
2023-07-05T03:52:27.416Z,1.55
2023-07-05T03:54:54.482Z,1.08
2023-07-05T03:57:21.510Z,1.40
2023-07-05T03:59:48.804Z,1.40
2023-07-05T04:02:15.904Z,1.55
2023-07-05T04:04:45.442Z,1.80
2023-07-05T04:07:12.433Z,1.30
2023-07-05T04:09:39.521Z,1.52
2023-07-05T04:12:07.219Z,1.48
2023-07-05T04:14:34.274Z,1.60
2023-07-05T04:17:01.405Z,1.25
2023-07-05T04:19:28.500Z,1.30
2023-07-05T04:21:55.615Z,1.50
2023-07-05T04:24:22.629Z,1.60
2023-07-05T04:26:49.656Z,1.50
2023-07-05T04:29:16.661Z,1.90
2023-07-05T04:31:43.708Z,1.58
2023-07-05T04:34:10.713Z,1.40
2023-07-05T04:36:37.767Z,1.30
2023-07-05T04:39:04.797Z,1.58
2023-07-05T04:41:31.883Z,1.45
2023-07-05T04:43:59.010Z,1.45
2023-07-05T04:46:26.101Z,1.45
2023-07-05T04:48:53.214Z,1.40
2023-07-05T04:51:20.667Z,1.25
2023-07-05T04:53:47.668Z,1.60
2023-07-05T04:56:16.508Z,1.40
2023-07-05T04:58:44.115Z,1.50
2023-07-05T05:01:14.507Z,1.52
2023-07-05T05:03:42.440Z,1.40
2023-07-05T05:06:09.473Z,1.80
2023-07-05T05:08:36.517Z,1.88
2023-07-05T05:11:05.683Z,1.85
2023-07-05T05:13:35.618Z,1.50
2023-07-05T05:16:03.876Z,1.27
2023-07-05T05:18:35.046Z,1.83
2023-07-05T05:21:02.330Z,1.80
2023-07-05T05:23:30.666Z,1.60
2023-07-05T05:25:58.129Z,1.45
2023-07-05T05:28:25.147Z,1.65
2023-07-05T05:30:52.292Z,1.40
2023-07-05T05:33:19.780Z,1.75
2023-07-05T05:35:50.969Z,1.90
2023-07-05T05:38:20.065Z,1.40
2023-07-05T05:40:51.085Z,1.58
2023-07-05T05:43:19.791Z,1.50
2023-07-05T05:45:47.488Z,1.70
2023-07-05T05:48:14.726Z,1.65
2023-07-05T05:50:41.830Z,1.50
2023-07-05T05:53:11.498Z,1.80
2023-07-05T05:55:40.461Z,1.50
2023-07-05T05:58:08.431Z,2.10
2023-07-05T06:00:35.603Z,1.42
2023-07-05T06:03:03.025Z,1.98
2023-07-05T06:05:32.178Z,1.60
2023-07-05T06:07:59.321Z,1.50
2023-07-05T06:10:26.481Z,1.60
2023-07-05T06:12:53.508Z,1.92
2023-07-05T06:15:20.522Z,1.40
2023-07-05T06:17:47.609Z,1.50
2023-07-05T06:20:18.403Z,1.70
2023-07-05T06:25:12.626Z,1.60
2023-07-05T06:27:40.278Z,1.50
2023-07-05T06:30:08.674Z,1.77
2023-07-05T06:32:36.481Z,1.30
2023-07-05T06:35:04.374Z,1.70
2023-07-05T06:37:31.567Z,1.33
2023-07-05T06:39:58.710Z,1.65
2023-07-05T06:42:27.502Z,1.65
2023-07-05T06:45:00.989Z,1.58
2023-07-05T06:47:28.099Z,2.00
2023-07-05T06:49:55.118Z,2.22
2023-07-05T06:52:22.105Z,1.60
2023-07-05T06:54:49.127Z,1.98
2023-07-05T06:57:16.343Z,2.45
2023-07-05T06:59:45.888Z,2.55
2023-07-05T07:02:13.161Z,2.08
2023-07-05T07:04:40.334Z,2.72
2023-07-05T07:07:07.983Z,3.17
2023-07-05T07:09:35.565Z,2.88
2023-07-05T07:12:02.603Z,3.13
2023-07-05T07:14:29.607Z,2.97
2023-07-05T07:16:57.121Z,2.97
2023-07-05T07:19:24.220Z,2.80
2023-07-05T07:21:51.713Z,3.40
2023-07-05T07:24:20.735Z,3.55
2023-07-05T07:26:47.792Z,3.42
2023-07-05T07:29:14.841Z,3.75
2023-07-05T07:31:41.895Z,3.50
2023-07-05T07:34:09.046Z,4.00
2023-07-05T07:36:37.518Z,3.85
2023-07-05T07:39:05.318Z,3.85
2023-07-05T07:41:36.892Z,3.42
2023-07-05T07:44:10.142Z,3.70
2023-07-05T07:46:40.084Z,3.67
2023-07-05T07:49:10.365Z,3.97
2023-07-05T07:51:40.456Z,3.75
2023-07-05T07:54:17.357Z,4.10
2023-07-05T07:56:47.470Z,3.40
2023-07-05T07:59:15.057Z,3.53
2023-07-05T08:01:42.703Z,3.08
2023-07-05T08:04:12.611Z,2.83
2023-07-05T08:06:47.670Z,3.03
2023-07-05T08:09:22.141Z,3.03
2023-07-05T08:11:49.746Z,3.50
2023-07-05T08:14:18.652Z,3.40
2023-07-05T08:16:46.915Z,3.03
2023-07-05T08:19:15.922Z,3.35
2023-07-05T08:21:45.443Z,3.03
2023-07-05T08:24:24.634Z,3.00
2023-07-05T08:26:54.419Z,3.30
2023-07-05T08:29:21.926Z,3.45
2023-07-05T08:31:49.999Z,3.22
2023-07-05T08:34:17.629Z,2.75
2023-07-05T08:36:45.052Z,2.90
2023-07-05T08:39:13.778Z,3.63
2023-07-05T08:41:46.452Z,2.90
2023-07-05T08:44:31.819Z,2.97
2023-07-05T08:47:04.467Z,3.70
2023-07-05T08:49:43.552Z,2.67
2023-07-05T08:52:37.609Z,2.92
2023-07-05T08:55:11.801Z,2.75
2023-07-05T08:57:53.950Z,2.60
2023-07-05T09:00:35.923Z,2.42
2023-07-05T09:03:03.145Z,2.25
2023-07-05T09:05:48.064Z,2.63
2023-07-05T09:08:58.269Z,2.30
2023-07-05T09:12:31.069Z,3.00
2023-07-05T09:15:00.781Z,2.75
2023-07-05T09:17:50.870Z,3.00
2023-07-05T09:20:41.353Z,2.95
2023-07-05T09:23:17.510Z,2.78
2023-07-05T09:25:55.755Z,2.70
2023-07-05T09:28:31.874Z,2.60
2023-07-05T09:31:02.577Z,2.50
2023-07-05T09:33:39.864Z,2.30
2023-07-05T09:36:23.841Z,1.90
2023-07-05T09:39:05.016Z,1.98
2023-07-05T09:41:45.470Z,1.80
2023-07-05T09:44:12.786Z,2.13
2023-07-05T09:46:40.146Z,2.22
2023-07-05T09:49:16.837Z,2.20
2023-07-05T09:51:47.141Z,1.65
2023-07-05T09:54:32.792Z,2.00
2023-07-05T09:57:07.863Z,1.85
2023-07-05T09:59:36.062Z,2.20
2023-07-05T10:02:13.975Z,2.03
2023-07-05T10:05:15.571Z,1.95
2023-07-05T10:07:56.812Z,2.08
2023-07-05T10:10:34.205Z,1.90
2023-07-05T10:13:16.958Z,1.90
2023-07-05T10:15:50.889Z,2.38
2023-07-05T10:18:41.025Z,1.98
2023-07-05T10:21:21.211Z,2.22
2023-07-05T10:23:49.305Z,1.85
2023-07-05T10:26:18.972Z,1.30
2023-07-05T10:28:47.325Z,1.83
2023-07-05T10:31:31.570Z,1.70
2023-07-05T10:34:14.341Z,1.85
2023-07-05T10:36:46.262Z,2.00
2023-07-05T10:39:22.227Z,1.80
2023-07-05T10:41:56.556Z,1.90
2023-07-05T10:44:37.755Z,2.22
2023-07-05T10:47:08.117Z,2.00
2023-07-05T10:49:37.601Z,1.60
2023-07-05T10:52:11.819Z,1.80
2023-07-05T10:55:20.971Z,2.33
2023-07-05T10:58:21.313Z,2.42
2023-07-05T11:01:28.108Z,2.35
2023-07-05T11:04:03.832Z,2.00
2023-07-05T11:06:33.100Z,1.80
2023-07-05T11:09:00.334Z,1.60
2023-07-05T11:11:33.372Z,1.65
2023-07-05T11:14:04.329Z,1.85
2023-07-05T11:16:33.313Z,1.90
2023-07-05T11:19:12.279Z,1.83
2023-07-05T11:21:51.471Z,2.00
2023-07-05T11:24:39.368Z,2.10
2023-07-05T11:27:24.939Z,2.03
2023-07-05T11:29:55.876Z,1.88
2023-07-05T11:32:49.345Z,1.60
2023-07-05T11:35:51.605Z,1.95
2023-07-05T11:38:36.659Z,1.45
2023-07-05T11:41:31.117Z,1.40
2023-07-05T11:44:29.834Z,1.50
2023-07-05T11:46:56.934Z,1.70
2023-07-05T11:49:28.257Z,1.55
2023-07-05T11:52:15.519Z,1.60
2023-07-05T11:55:16.509Z,1.50
2023-07-05T11:58:03.520Z,1.70
2023-07-05T12:00:38.769Z,1.48
2023-07-05T12:03:21.679Z,1.58
2023-07-05T12:06:16.523Z,1.52
2023-07-05T12:08:46.824Z,1.50
2023-07-05T12:13:43.184Z,1.33
2023-07-05T12:16:19.190Z,1.40
2023-07-05T12:18:48.475Z,1.40
2023-07-05T12:21:15.547Z,1.67
2023-07-05T12:23:52.171Z,1.30
2023-07-05T12:26:31.184Z,1.70
2023-07-05T12:29:14.439Z,1.60
2023-07-05T12:31:41.652Z,1.10
2023-07-05T12:34:20.515Z,1.30
2023-07-05T12:36:47.722Z,1.65
2023-07-05T12:39:17.696Z,1.58
2023-07-05T12:41:57.900Z,1.25
2023-07-05T12:44:25.339Z,1.42
2023-07-05T12:46:52.388Z,1.42
2023-07-05T12:49:27.942Z,1.63
2023-07-05T12:51:59.279Z,1.67
2023-07-05T12:54:27.732Z,1.10
2023-07-05T12:56:56.928Z,1.60
2023-07-05T12:59:44.161Z,1.42
2023-07-05T13:02:31.047Z,1.55
2023-07-05T13:04:59.526Z,1.38
2023-07-05T13:07:27.652Z,1.55
2023-07-05T13:10:02.923Z,1.40
2023-07-05T13:12:56.632Z,1.27
2023-07-05T13:15:38.454Z,1.58
2023-07-05T13:18:31.584Z,1.40
2023-07-05T13:21:08.518Z,1.52
2023-07-05T13:23:35.528Z,1.42
2023-07-05T13:26:02.541Z,1.13
2023-07-05T13:28:32.507Z,1.63
2023-07-05T13:31:04.056Z,1.55
2023-07-05T13:33:38.094Z,1.30
2023-07-05T13:36:05.885Z,1.50
2023-07-05T13:38:36.048Z,1.33
2023-07-05T13:41:04.989Z,1.30
2023-07-05T13:43:34.226Z,1.58
2023-07-05T13:46:02.681Z,1.60
2023-07-05T13:48:30.963Z,1.42
2023-07-05T13:50:58.237Z,1.30
2023-07-05T13:53:29.719Z,1.23
2023-07-05T13:55:56.892Z,1.20
2023-07-05T13:58:25.084Z,1.30
2023-07-05T14:00:52.172Z,1.23
2023-07-05T14:03:19.483Z,1.20
2023-07-05T14:05:47.295Z,1.50
2023-07-05T14:08:16.484Z,1.80
2023-07-05T14:10:48.880Z,1.38
2023-07-05T14:13:17.744Z,1.42
2023-07-05T14:15:46.453Z,1.15
2023-07-05T14:18:19.152Z,1.20
2023-07-05T14:20:49.093Z,1.05
2023-07-05T14:23:17.848Z,1.40
2023-07-05T14:25:48.731Z,1.50
2023-07-05T14:28:16.190Z,1.42
2023-07-05T14:30:44.508Z,1.50
2023-07-05T14:33:18.083Z,1.50
2023-07-05T14:35:45.724Z,1.48
2023-07-05T14:38:12.825Z,1.67
2023-07-05T14:40:42.809Z,1.85
2023-07-05T14:43:11.406Z,1.42
2023-07-05T14:45:39.346Z,1.45
2023-07-05T14:48:06.821Z,1.50
2023-07-05T14:50:35.803Z,1.10
2023-07-05T14:53:07.471Z,1.75
2023-07-05T14:55:34.990Z,1.20
2023-07-05T14:58:02.034Z,1.42
2023-07-05T15:00:34.498Z,1.40
2023-07-05T15:03:12.893Z,1.38
2023-07-05T15:05:40.030Z,1.70
2023-07-05T15:08:07.375Z,1.40
2023-07-05T15:10:35.030Z,1.40
2023-07-05T15:13:02.450Z,1.38
2023-07-05T15:15:36.917Z,1.35
2023-07-05T15:18:06.801Z,1.40
2023-07-05T15:20:36.147Z,1.42
2023-07-05T15:23:04.271Z,1.50
2023-07-05T15:25:31.809Z,1.27
2023-07-05T15:27:59.149Z,1.17
2023-07-05T15:30:27.277Z,1.27
2023-07-05T15:32:54.625Z,1.52
2023-07-05T15:35:24.452Z,1.40
2023-07-05T15:37:51.766Z,1.52
2023-07-05T15:40:19.601Z,1.52
2023-07-05T15:42:50.201Z,1.02
2023-07-05T15:45:18.890Z,1.40
2023-07-05T15:47:47.173Z,1.40
2023-07-05T15:50:17.840Z,1.50
2023-07-05T15:52:46.182Z,1.05
2023-07-05T15:55:13.906Z,1.20
2023-07-05T15:57:42.297Z,1.50
2023-07-05T16:00:24.147Z,1.30
2023-07-05T16:02:58.919Z,1.30
2023-07-05T16:05:34.712Z,1.40
2023-07-05T16:08:05.216Z,1.40
2023-07-05T16:10:34.752Z,1.40
2023-07-05T16:13:03.107Z,1.38
2023-07-05T16:15:35.379Z,1.48
2023-07-05T16:18:08.163Z,1.30
2023-07-05T16:20:36.776Z,1.27
2023-07-05T16:23:04.830Z,1.67
2023-07-05T16:25:32.414Z,1.60
2023-07-05T16:27:59.701Z,1.30
2023-07-05T16:30:27.643Z,1.40
2023-07-05T16:32:54.750Z,1.17
2023-07-05T16:35:21.946Z,1.50
2023-07-05T16:37:52.554Z,1.10
2023-07-05T16:40:19.780Z,1.30
2023-07-05T16:42:50.144Z,1.30
2023-07-05T16:45:17.898Z,1.50
2023-07-05T16:47:45.140Z,1.38
2023-07-05T16:50:13.687Z,1.27
2023-07-05T16:52:40.715Z,1.50
2023-07-05T16:55:09.576Z,1.48
2023-07-05T16:57:36.710Z,1.38
2023-07-05T17:00:04.340Z,1.35
2023-07-05T17:02:32.720Z,1.40
2023-07-05T17:04:59.780Z,1.25
2023-07-05T17:07:26.986Z,1.30
2023-07-05T17:09:54.069Z,1.30
2023-07-05T17:12:21.229Z,1.45
2023-07-05T17:14:49.857Z,1.38
2023-07-05T17:17:17.862Z,1.30
2023-07-05T17:19:45.001Z,1.48
2023-07-05T17:22:12.831Z,1.55
2023-07-05T17:24:39.804Z,1.42
2023-07-05T17:27:07.085Z,1.05
2023-07-05T17:29:34.117Z,1.30
2023-07-05T17:32:02.137Z,1.15
2023-07-05T17:34:30.574Z,1.30
2023-07-05T17:36:58.036Z,1.30
2023-07-05T17:39:25.799Z,1.60
2023-07-05T17:41:53.858Z,1.50
2023-07-05T17:44:23.113Z,1.40
2023-07-05T17:46:50.308Z,1.38
2023-07-05T17:49:17.726Z,1.50
2023-07-05T17:51:44.836Z,1.50
2023-07-05T17:54:12.745Z,1.77
2023-07-05T17:56:41.135Z,1.00
2023-07-05T17:59:10.534Z,1.40
2023-07-05T18:01:37.736Z,1.13
2023-07-05T18:04:05.994Z,1.23
2023-07-05T18:06:33.628Z,1.35
2023-07-05T18:09:01.152Z,1.38
2023-07-05T18:11:28.313Z,1.13
2023-07-05T18:13:56.222Z,1.40
2023-07-05T18:16:24.035Z,1.40
2023-07-05T18:18:51.183Z,1.65
2023-07-05T18:21:18.585Z,1.40
2023-07-05T18:23:48.418Z,1.60
2023-07-05T18:26:18.077Z,1.40
2023-07-05T18:28:47.433Z,1.27
2023-07-05T18:31:14.849Z,1.48
2023-07-05T18:33:42.793Z,1.58
2023-07-05T18:36:11.717Z,1.38
2023-07-05T18:38:39.488Z,1.42
2023-07-05T18:41:13.751Z,1.40
2023-07-05T18:43:41.188Z,1.10
2023-07-05T18:46:09.413Z,1.33
2023-07-05T18:48:41.025Z,1.60
2023-07-05T18:51:09.101Z,1.63
2023-07-05T18:53:36.914Z,1.30
2023-07-05T18:56:09.552Z,1.40
2023-07-05T18:58:36.637Z,1.05
2023-07-05T19:01:09.780Z,1.20
2023-07-05T19:03:36.921Z,1.27
2023-07-05T19:06:09.777Z,1.13
2023-07-05T19:08:38.449Z,1.27
2023-07-05T19:11:12.285Z,1.50
2023-07-05T19:13:43.085Z,1.23
2023-07-05T19:16:12.638Z,1.25
2023-07-05T19:18:40.550Z,0.97
2023-07-05T19:21:08.693Z,1.27
2023-07-05T19:23:38.652Z,1.23
2023-07-05T19:26:10.386Z,1.30
2023-07-05T19:28:38.593Z,1.20
2023-07-05T19:31:32.977Z,1.13
2023-07-05T19:33:59.950Z,1.10
2023-07-05T19:36:27.769Z,1.50
2023-07-05T19:38:56.287Z,1.00
2023-07-05T19:41:24.217Z,1.30
2023-07-05T19:43:51.487Z,1.08
2023-07-05T19:46:24.352Z,1.27
2023-07-05T19:48:58.358Z,1.00
2023-07-05T19:51:25.540Z,1.52
2023-07-05T19:53:53.291Z,1.33
2023-07-05T19:56:21.314Z,1.25
2023-07-05T19:58:48.587Z,1.08
2023-07-05T20:01:18.323Z,1.23
2023-07-05T20:03:46.740Z,1.10
2023-07-05T20:06:13.889Z,1.10
2023-07-05T20:08:43.455Z,1.10
2023-07-05T20:11:14.541Z,1.10
2023-07-05T20:13:42.827Z,1.30
2023-07-05T20:16:09.989Z,1.25
2023-07-05T20:18:37.066Z,0.95
2023-07-05T20:21:10.293Z,1.27
2023-07-05T20:23:42.910Z,1.23
2023-07-05T20:26:10.478Z,1.10
2023-07-05T20:31:04.580Z,1.20
2023-07-05T20:33:32.860Z,1.00
2023-07-05T20:36:02.294Z,1.02
2023-07-05T20:38:30.746Z,1.02
2023-07-05T20:40:58.440Z,1.20
2023-07-05T20:43:26.169Z,1.17
2023-07-05T20:46:02.879Z,0.93
2023-07-05T20:48:30.479Z,1.20
2023-07-05T20:51:08.030Z,1.00
2023-07-05T20:53:35.409Z,1.30
2023-07-05T20:56:03.637Z,1.10
2023-07-05T20:58:36.377Z,0.93
2023-07-05T21:01:06.559Z,1.20
2023-07-05T21:03:34.064Z,1.17
2023-07-05T21:06:02.245Z,1.20
2023-07-05T21:08:33.432Z,1.60
2023-07-05T21:11:00.736Z,1.33
2023-07-05T21:13:30.239Z,1.30
2023-07-05T21:16:04.428Z,1.10
2023-07-05T21:18:32.753Z,0.80
2023-07-05T21:21:01.374Z,1.27
2023-07-05T21:23:31.105Z,1.00
2023-07-05T21:26:01.310Z,1.17
2023-07-05T21:28:28.874Z,1.30
2023-07-05T21:30:59.261Z,1.23
2023-07-05T21:33:27.689Z,1.25
2023-07-05T21:35:58.642Z,1.00
2023-07-05T21:38:27.812Z,1.10
2023-07-05T21:40:58.360Z,1.17
2023-07-05T21:43:27.102Z,1.38
2023-07-05T21:45:54.701Z,1.10
2023-07-05T21:48:29.371Z,1.45
2023-07-05T21:50:58.974Z,1.20
2023-07-05T21:53:26.251Z,1.17
2023-07-05T21:56:01.151Z,1.00
2023-07-05T21:58:33.673Z,1.33
2023-07-05T22:01:03.009Z,0.70
2023-07-05T22:03:30.909Z,1.15
2023-07-05T22:05:59.414Z,1.00
2023-07-05T22:08:26.966Z,1.52
2023-07-05T22:10:55.962Z,1.45
2023-07-05T22:13:25.091Z,1.20
2023-07-05T22:15:52.736Z,1.30
2023-07-05T22:18:19.875Z,1.30
2023-07-05T22:20:49.454Z,1.20
2023-07-05T22:23:16.759Z,1.48
2023-07-05T22:25:44.139Z,1.45
2023-07-05T22:28:11.261Z,1.50
2023-07-05T22:30:38.710Z,1.35
2023-07-05T22:33:06.441Z,1.40
2023-07-05T22:35:35.291Z,1.50
2023-07-05T22:38:02.467Z,1.48
2023-07-05T22:40:30.537Z,1.65
2023-07-05T22:42:58.142Z,1.38
2023-07-05T22:45:26.452Z,1.60
2023-07-05T22:47:53.738Z,1.40
2023-07-05T22:50:20.923Z,1.27
2023-07-05T22:52:47.944Z,1.02
2023-07-05T22:55:16.609Z,1.35
2023-07-05T22:57:44.174Z,1.20
2023-07-05T23:00:23.087Z,0.93
2023-07-05T23:02:51.305Z,1.30
2023-07-05T23:05:22.829Z,1.42
2023-07-05T23:07:50.055Z,1.50
2023-07-05T23:10:17.220Z,1.70
2023-07-05T23:12:44.320Z,1.48
2023-07-05T23:15:11.840Z,1.63
2023-07-05T23:20:10.652Z,1.52
2023-07-05T23:22:37.834Z,1.70
2023-07-05T23:25:05.286Z,1.70
2023-07-05T23:27:32.307Z,1.30
2023-07-05T23:30:00.686Z,1.63
2023-07-05T23:32:29.393Z,1.73
2023-07-05T23:34:57.019Z,1.95
2023-07-05T23:37:24.969Z,1.63
2023-07-05T23:39:52.457Z,1.05
2023-07-05T23:42:20.439Z,1.35
2023-07-05T23:44:49.677Z,1.40
2023-07-05T23:47:16.986Z,1.55
2023-07-05T23:49:47.237Z,1.58
2023-07-05T23:52:14.885Z,1.25
2023-07-05T23:54:43.831Z,1.33
2023-07-05T23:57:10.899Z,1.50
2023-07-05T23:59:38.026Z,1.63
